Las Cruces International Airport
KLRU : now visible

Airfield :











YOU CAN JOIN US ON...

 
LOGIN :

Register | Disclaimer

   EN    FR    IT 

 









Legend :    VFR   Marginal VFR   IFR   Intensive IFR   Very Intensive IFR
Visi :
Ceiling :
>= 8 km
>= 3000ft
5 to 8 km
1000 to 3000 ft
1500m to 5 km
500 to 1000 ft
800 to 1500m
200 to 500 ft
< 800m
< 200 ft
Symbols :   Thunderstorms  Fog  Heavy snow  Heavy precipitations  Wind > 20 kt






- Airport Elevation : 4456 ft
- IATA code : LRU


KLRU - Las Cruces International

CURRENT METAR :
  • 250855Z AUTO 30006KT 10SM CLR 17/M06 A2988 RMK AO2 T01661065

EXPIRED METARs :
  • 250835Z AUTO 31006KT 10SM CLR 18/M07 A2988 RMK AO2 T01751066
  • 250815Z AUTO 31007KT 10SM CLR 19/M07 A2988 RMK AO2 T01911069
  • 250755Z AUTO 32009KT 10SM CLR 17/M07 A2988 RMK AO2 T01711072
  • 250735Z AUTO 32006KT 10SM CLR 17/M07 A2988 RMK AO2 T01711075
  • 250715Z AUTO 32007KT 10SM CLR 18/M07 A2988 RMK AO2 T01801075
  • 250655Z AUTO 33006KT 10SM CLR 20/M08 A2988 RMK AO2 T01951077
  • 250635Z AUTO 28011KT 10SM CLR 22/M07 A2987 RMK AO2 T02151075
  • 250615Z AUTO 28015KT 10SM CLR 22/M07 A2986 RMK AO2 T02231073
  • 250555Z AUTO 28019G23KT 10SM CLR 23/M07 A2986 RMK AO2 T02251071 10290 20225

TAF KLRU
Valid from the 25 at 06:00 until the 26 at 06:00 UTC


250520Z 2506/2606 28015G25KT P6SM FEW250
FM250800 29011KT P6SM SKC
FM251000 35012G20KT P6SM FEW120
FM251800 31009KT P6SM SCT120
FM260200 08012G20KT P6SM FEW120
KZAB FIR / North America



MET'MAP, your aeronautical weather chart ! - Copyright ORBIFLY December 2007 - Disclaimer

ORBIFLY MET'MAP TEAM :

Programming & Development : Alexandra Zaïnal
Concept & original design : Baudouin d'Aumeries
Assistance for programming : Marc-Olivier Méhu
Technical & hardware support : Manuel Goepfert

Contact : metmap@orbifly.com




SOURCES & CREDITS :

   NOAA       Earth
Advisory